Map

Track Data

SID SEASON NUMBER BASIN SUBBASIN NAME ISO_TIME NATURE LAT LON WMO_WIND WMO_PRES WMO_AGENCY TRACK_TYPE DIST2LAND LANDFALL IFLAG USA_AGENCY USA_ATCF_ID USA_LAT USA_LON USA_RECORD USA_STATUS USA_WIND USA_PRES USA_SSHS USA_R34_NE USA_R34_SE USA_R34_SW USA_R34_NW USA_R50_NE USA_R50_SE USA_R50_SW USA_R50_NW USA_R64_NE USA_R64_SE USA_R64_SW USA_R64_NW USA_POCI USA_ROCI USA_RMW USA_EYE TOKYO_LAT TOKYO_LON TOKYO_GRADE TOKYO_WIND TOKYO_PRES TOKYO_R50_DIR TOKYO_R50_LONG TOKYO_R50_SHORT TOKYO_R30_DIR TOKYO_R30_LONG TOKYO_R30_SHORT TOKYO_LAND CMA_LAT CMA_LON CMA_CAT CMA_WIND CMA_PRES HKO_LAT HKO_LON HKO_CAT HKO_WIND HKO_PRES NEWDELHI_LAT NEWDELHI_LON NEWDELHI_GRADE NEWDELHI_WIND NEWDELHI_PRES NEWDELHI_CI NEWDELHI_DP NEWDELHI_POCI REUNION_LAT REUNION_LON REUNION_TYPE REUNION_WIND REUNION_PRES REUNION_TNUM REUNION_CI REUNION_RMW REUNION_R34_NE REUNION_R34_SE REUNION_R34_SW REUNION_R34_NW REUNION_R50_NE REUNION_R50_SE REUNION_R50_SW REUNION_R50_NW REUNION_R64_NE REUNION_R64_SE REUNION_R64_SW REUNION_R64_NW BOM_LAT BOM_LON BOM_TYPE BOM_WIND BOM_PRES BOM_TNUM BOM_CI BOM_RMW BOM_R34_NE BOM_R34_SE BOM_R34_SW BOM_R34_NW BOM_R50_NE BOM_R50_SE BOM_R50_SW BOM_R50_NW BOM_R64_NE BOM_R64_SE BOM_R64_SW BOM_R64_NW BOM_ROCI BOM_POCI BOM_EYE BOM_POS_METHOD BOM_PRES_METHOD NADI_LAT NADI_LON NADI_CAT NADI_WIND NADI_PRES WELLINGTON_LAT WELLINGTON_LON WELLINGTON_WIND WELLINGTON_PRES DS824_LAT DS824_LON DS824_STAGE DS824_WIND DS824_PRES TD9636_LAT TD9636_LON TD9636_STAGE TD9636_WIND TD9636_PRES TD9635_LAT TD9635_LON TD9635_WIND TD9635_PRES TD9635_ROCI NEUMANN_LAT NEUMANN_LON NEUMANN_CLASS NEUMANN_WIND NEUMANN_PRES MLC_LAT MLC_LON MLC_CLASS MLC_WIND MLC_PRES USA_GUST BOM_GUST BOM_GUST_PER REUNION_GUST REUNION_GUST_PER USA_SEAHGT USA_SEARAD_NE USA_SEARAD_SE USA_SEARAD_SW USA_SEARAD_NW STORM_SPEED STORM_DIR
1948051S13134 1948 19 SI WA NOT_NAMED 1948-02-19 23:30:00 NR -12.8000 134.300 1000 bom main 0 0 ______O_______ -1 -12.8000 134.300 1000 5 310
1948051S13134 1948 19 SI WA NOT_NAMED 1948-02-20 00:00:00 TS -12.7744 134.265 main 0 0 ______P__O____ -1 -12.7616 134.248 -12.8000 134.300 TC 30 1000 3 322
1948051S13134 1948 19 SI WA NOT_NAMED 1948-02-20 03:00:00 TS -12.6542 134.187 main 0 0 ______P__P____ -1 -12.5380 133.947 -12.8286 134.546 TC 2 335
1948051S13134 1948 19 SI WA NOT_NAMED 1948-02-20 06:00:00 TS -12.5658 134.169 main 0 0 ______P__P____ -1 -12.3450 133.704 -12.8603 134.789 TC 1 45
1948051S13134 1948 19 SI WA NOT_NAMED 1948-02-20 09:00:00 TS -12.5537 134.297 main 0 0 ______P__P____ -1 -12.2091 133.564 -12.8983 135.029 TC 2 87
1948051S13134 1948 19 SI WA NOT_NAMED 1948-02-20 12:00:00 TS -12.5515 134.419 main 0 0 ______P__P____ -1 -12.1570 133.576 -12.9460 135.263 TC 3 100
1948051S13134 1948 19 SI WA NOT_NAMED 1948-02-20 15:00:00 TS -12.6108 134.638 main 0 0 ______P__P____ -1 -12.2150 133.788 -13.0067 135.489 TC 6 110
1948051S13134 1948 19 SI WA NOT_NAMED 1948-02-20 18:00:00 TS -12.7463 134.976 main 0 0 ______P__P____ -1 -12.4089 134.247 -13.0837 135.705 TC 9 114
1948051S13134 1948 19 SP EA NOT_NAMED 1948-02-20 21:00:00 TS -12.9722 135.457 main 0 0 ______P__P____ -1 -12.7639 135.004 -13.1804 135.909 TC 12 117
1948051S13134 1948 19 SP EA NOT_NAMED 1948-02-20 23:30:00 TS -13.2392 135.985 1000 bom main 0 0 ______O__P____ -1 -13.2000 135.900 1000 -13.2783 136.069 TC 14 118
1948051S13134 1948 19 SP EA NOT_NAMED 1948-02-21 00:00:00 TS -13.3000 136.100 bom main 10 0 ______O__O____ -1 -13.3000 136.100 -13.3000 136.100 TC 9 129
1948051S13134 1948 19 SP EA NOT_NAMED 1948-02-21 03:00:00 TS -13.5533 136.389 main 24 24 ______P__P____ -1 -13.6621 136.502 -13.4446 136.276 TC 7 134
1948051S13134 1948 19 SP EA NOT_NAMED 1948-02-21 03:30:00 TS -13.5855 136.402 bom main 24 0 ______O__P____ -1 -13.7000 136.500 -13.4709 136.304 TC 6 140
1948051S13134 1948 19 SP EA NOT_NAMED 1948-02-21 06:00:00 TS -13.7736 136.580 main 0 0 ______P__P____ -1 -13.9363 136.722 -13.6108 136.439 TC 6 139
1948051S13134 1948 19 SP EA NOT_NAMED 1948-02-21 09:00:00 TS -13.9781 136.753 main 0 0 ______P__P____ -1 -14.1622 136.914 -13.7940 136.592 TC 5 142
1948051S13134 1948 19 SP EA NOT_NAMED 1948-02-21 12:00:00 TS -14.1639 136.890 main 0 0 ______P__P____ -1 -14.3383 137.042 -13.9894 136.738 TC 4 146
1948051S13134 1948 19 SP EA NOT_NAMED 1948-02-21 15:00:00 TS -14.3354 137.003 main 0 0 ______P__P____ -1 -14.4783 137.127 -14.1925 136.878 TC 4 148
1948051S13134 1948 19 SP EA NOT_NAMED 1948-02-21 18:00:00 TS -14.4973 137.102 main 24 24 ______P__P____ -1 -14.5962 137.188 -14.3984 137.017 TC 4 149
1948051S13134 1948 19 SP EA NOT_NAMED 1948-02-21 21:00:00 TS -14.6540 137.200 main 49 49 ______P__P____ -1 -14.7055 137.243 -14.6025 137.157 TC 4 148
1948051S13134 1948 19 SP EA NOT_NAMED 1948-02-21 23:30:00 TS -14.7839 137.288 998 bom main 64 64 ______O__P____ -1 -14.8000 137.300 998 -14.7677 137.276 TC 4 145
1948051S13134 1948 19 SP EA NOT_NAMED 1948-02-22 00:00:00 TS -14.8090 137.316 main 64 64 ______P__O____ -1 -14.8179 137.332 -14.8000 137.300 TC 35 998 5 120
1948051S13134 1948 19 SP EA NOT_NAMED 1948-02-22 03:00:00 TS -14.9258 137.548 main 86 93 ______P__P____ -1 -14.9144 137.538 -14.9372 137.558 TC 5 116
1948051S13134 1948 19 SP EA NOT_NAMED 1948-02-22 06:00:00 TS -15.0342 137.794 main 116 116 ______P__P____ -1 -15.0025 137.758 -15.0658 137.830 TC 5 115
1948051S13134 1948 19 SP EA NOT_NAMED 1948-02-22 09:00:00 TS -15.1451 138.037 main 127 114 ______P__P____ -1 -15.0967 137.979 -15.1936 138.095 TC 5 118
1948051S13134 1948 19 SP EA NOT_NAMED 1948-02-22 12:00:00 TS -15.2698 138.260 main 119 116 ______P__P____ -1 -15.2112 138.186 -15.3285 138.333 TC 5 125
1948051S13134 1948 19 SP EA NOT_NAMED 1948-02-22 15:00:00 TS -15.4195 138.445 main 116 116 ______P__P____ -1 -15.3605 138.365 -15.4785 138.524 TC 5 138
1948051S13134 1948 19 SP EA NOT_NAMED 1948-02-22 18:00:00 TS -15.6055 138.574 main 117 106 ______P__P____ -1 -15.5593 138.503 -15.6517 138.646 TC 5 157
1948051S13134 1948 19 SP EA NOT_NAMED 1948-02-22 21:00:00 TS -15.8390 138.631 main 106 78 ______P__P____ -1 -15.8219 138.585 -15.8562 138.678 TC 5 175
1948051S13134 1948 19 SP EA NOT_NAMED 1948-02-22 23:30:00 TS -16.0782 138.611 996 bom main 78 78 ______O__P____ -1 -16.1000 138.600 996 4 -16.0563 138.622 TC 6 182
1948051S13134 1948 19 SP EA NOT_NAMED 1948-02-23 00:00:00 TS -16.1268 138.609 main 78 33 ______P__O____ -1 -16.1536 138.618 996 -16.1000 138.600 TC 35 996 7 201
1948051S13134 1948 19 SP EA NOT_NAMED 1948-02-23 03:00:00 TS -16.4659 138.457 main 33 11 ______P__P____ -1 -16.5401 138.629 996 -16.3917 138.286 TC 8 209
1948051S13134 1948 19 SP EA NOT_NAMED 1948-02-23 04:30:00 TS -16.6757 138.291 996 bom main 11 0 ______O__P____ -1 -16.8000 138.500 996 -16.5514 138.081 TC 12 221
1948051S13134 1948 19 SP EA NOT_NAMED 1948-02-23 06:00:00 TS -16.9289 138.039 main 0 0 ______P__P____ -1 -17.1381 138.226 -16.7196 137.851 TC 16 227
1948051S13134 1948 19 SP EA NOT_NAMED 1948-02-23 09:00:00 TS -17.4824 137.384 main 0 0 ______P__P____ -1 -17.8856 137.438 -17.0792 137.330 TC 17 229
1948051S13134 1948 19 SP EA NOT_NAMED 1948-02-23 09:30:00 TS -17.5709 137.268 bom main 0 0 ______O__P____ -1 -18.0000 137.300 -17.1418 137.237 TC 15 234
1948051S13134 1948 19 SP EA NOT_NAMED 1948-02-23 12:00:00 TS -17.9325 136.737 main 0 0 ______P__P____ -1 -18.3993 136.720 -17.4656 136.755 TC 14 237
1948051S13134 1948 19 SP EA NOT_NAMED 1948-02-23 15:00:00 TS -18.2904 136.111 main 0 0 ______P__P____ -1 -18.7060 136.063 -17.8747 136.160 TC 13 240
1948051S13134 1948 19 SP EA NOT_NAMED 1948-02-23 18:00:00 TS -18.5996 135.524 main 0 0 ______P__P____ -1 -18.8969 135.468 -18.3024 135.580 TC 12 240
1948051S13134 1948 19 SP EA NOT_NAMED 1948-02-23 21:00:00 TS -18.8968 135.001 main 0 0 ______P__P____ -1 -19.0484 134.954 -18.7452 135.048 TC 11 236
1948051S13134 1948 19 SI WA NOT_NAMED 1948-02-23 23:30:00 TS -19.1617 134.634 996 bom main 0 0 ______O__P____ -1 -19.2000 134.600 996 -19.1235 134.667 TC 10 232
1948051S13134 1948 19 SI WA NOT_NAMED 1948-02-24 00:00:00 TS -19.2186 134.569 main 0 0 ______P__O____ -1 -19.2373 134.538 -19.2000 134.600 TC 35 996 10 220
1948051S13134 1948 19 SI WA NOT_NAMED 1948-02-24 03:00:00 TS -19.5907 134.247 main 0 0 ______P__P____ -1 -19.5168 134.231 -19.6645 134.262 TC 9 213
1948051S13134 1948 19 SI WA NOT_NAMED 1948-02-24 06:00:00 TS -20.0105 134.025 main 0 0 ______P__P____ -1 -19.8835 134.021 -20.1376 134.029 TC 9 201
1948051S13134 1948 19 SI WA NOT_NAMED 1948-02-24 09:00:00 TS -20.4717 133.889 main 0 0 ______P__P____ -1 -20.3248 133.894 -20.6186 133.885 TC 10 191
1948051S13134 1948 19 SI WA NOT_NAMED 1948-02-24 12:00:00 TS -20.9673 133.826 main 0 0 ______P__P____ -1 -20.8281 133.836 -21.1065 133.816 TC 10 184
1948051S13134 1948 19 SI WA NOT_NAMED 1948-02-24 15:00:00 TS -21.4902 133.820 main 0 0 ______P__P____ -1 -21.3806 133.832 -21.5999 133.808 TC 11 178
1948051S13134 1948 19 SI WA NOT_NAMED 1948-02-24 18:00:00 TS -22.0426 133.856 main 0 0 ______P__P____ -1 -21.9694 133.870 -22.0976 133.846 TC 11 175
1948051S13134 1948 19 SI WA NOT_NAMED 1948-02-24 21:00:00 TS -22.5914 133.923 main 0 0 ______P__P____ -1 -22.5815 133.935 -22.5981 133.915 TC 11 173
1948051S13134 1948 19 SI WA NOT_NAMED 1948-02-24 23:30:00 TS -23.0442 133.990 999 bom main 0 0 ______O__P____ -1 -23.1000 134.000 999 -23.0163 133.985 TC 10 173
1948051S13134 1948 19 SI WA NOT_NAMED 1948-02-25 00:00:00 TS -23.1000 134.000 main 0 _________O____ -1 -23.1000 134.000 TC 30 999 7 176

About IBTrACS Database

This database is a web-friendly format of International Best Track Archive for Climate Stewardship (IBTrACS), a global best track data archive curated by NOAA dating back to 1842.

Updated: 2021-10-19